sensor_id;sensor_type;location;lat;lon;timestamp;pressure;altitude;pressure_sealevel;temperature;humidity
68822;BME280;55834;50.870;4.606;2023-04-23T00:01:51;100043.94;;;9.00;57.21
68822;BME280;55834;50.870;4.606;2023-04-23T00:04:18;100044.81;;;9.00;57.46
68822;BME280;55834;50.870;4.606;2023-04-23T00:06:45;100044.66;;;9.05;57.25
68822;BME280;55834;50.870;4.606;2023-04-23T00:09:13;100050.75;;;9.07;57.13
68822;BME280;55834;50.870;4.606;2023-04-23T00:11:39;100040.09;;;9.10;56.78
68822;BME280;55834;50.870;4.606;2023-04-23T00:14:05;100041.91;;;9.08;56.98
68822;BME280;55834;50.870;4.606;2023-04-23T00:16:30;100044.53;;;9.10;57.20
68822;BME280;55834;50.870;4.606;2023-04-23T00:18:56;100034.94;;;9.07;56.69
68822;BME280;55834;50.870;4.606;2023-04-23T00:21:21;100040.44;;;8.99;57.51
68822;BME280;55834;50.870;4.606;2023-04-23T00:23:47;100037.56;;;9.07;57.40
68822;BME280;55834;50.870;4.606;2023-04-23T00:26:12;100040.91;;;9.12;57.62
68822;BME280;55834;50.870;4.606;2023-04-23T00:28:38;100046.13;;;9.14;57.49
68822;BME280;55834;50.870;4.606;2023-04-23T00:31:03;100042.56;;;9.15;57.76
68822;BME280;55834;50.870;4.606;2023-04-23T00:33:28;100037.16;;;9.19;57.75
68822;BME280;55834;50.870;4.606;2023-04-23T00:35:54;100036.09;;;9.25;57.73
68822;BME280;55834;50.870;4.606;2023-04-23T00:38:19;100032.38;;;9.31;57.57
68822;BME280;55834;50.870;4.606;2023-04-23T00:40:45;100029.91;;;9.26;57.31
68822;BME280;55834;50.870;4.606;2023-04-23T00:43:10;100029.91;;;9.26;57.30
68822;BME280;55834;50.870;4.606;2023-04-23T00:45:36;100028.91;;;9.30;57.59
68822;BME280;55834;50.870;4.606;2023-04-23T00:48:02;100027.13;;;9.31;57.81
68822;BME280;55834;50.870;4.606;2023-04-23T00:50:28;100031.63;;;9.27;57.69
68822;BME280;55834;50.870;4.606;2023-04-23T00:52:53;100023.66;;;9.28;58.01
68822;BME280;55834;50.870;4.606;2023-04-23T00:55:18;100021.50;;;9.15;57.96
68822;BME280;55834;50.870;4.606;2023-04-23T00:57:45;100026.59;;;9.21;58.69
68822;BME280;55834;50.870;4.606;2023-04-23T01:00:11;100023.66;;;9.28;58.44
68822;BME280;55834;50.870;4.606;2023-04-23T01:02:38;100019.88;;;9.37;58.03
68822;BME280;55834;50.870;4.606;2023-04-23T01:05:06;100013.56;;;9.16;58.44
68822;BME280;55834;50.870;4.606;2023-04-23T01:07:33;100016.34;;;9.12;58.73
68822;BME280;55834;50.870;4.606;2023-04-23T01:09:59;100015.56;;;9.10;59.29
68822;BME280;55834;50.870;4.606;2023-04-23T01:12:25;100013.59;;;9.15;59.18
68822;BME280;55834;50.870;4.606;2023-04-23T01:14:50;100015.72;;;9.30;59.47
68822;BME280;55834;50.870;4.606;2023-04-23T01:17:16;100006.72;;;9.11;59.41
68822;BME280;55834;50.870;4.606;2023-04-23T01:19:41;100007.66;;;9.10;59.05
68822;BME280;55834;50.870;4.606;2023-04-23T01:22:11;100012.09;;;8.81;59.09
68822;BME280;55834;50.870;4.606;2023-04-23T01:24:37;100015.16;;;8.95;59.78
68822;BME280;55834;50.870;4.606;2023-04-23T01:27:03;100006.19;;;9.01;59.54
68822;BME280;55834;50.870;4.606;2023-04-23T01:29:30;100012.50;;;8.95;59.38
68822;BME280;55834;50.870;4.606;2023-04-23T01:31:56;100009.13;;;8.92;60.11
68822;BME280;55834;50.870;4.606;2023-04-23T01:34:23;100003.25;;;9.10;60.26
68822;BME280;55834;50.870;4.606;2023-04-23T01:36:49;100007.66;;;9.10;59.75
68822;BME280;55834;50.870;4.606;2023-04-23T01:39:15;100009.84;;;9.22;59.69
68822;BME280;55834;50.870;4.606;2023-04-23T01:41:41;100008.44;;;9.12;58.53
68822;BME280;55834;50.870;4.606;2023-04-23T01:44:06;100019.97;;;9.09;59.48
68822;BME280;55834;50.870;4.606;2023-04-23T01:46:31;100017.41;;;8.79;60.47
68822;BME280;55834;50.870;4.606;2023-04-23T01:48:57;100016.34;;;8.58;61.41
68822;BME280;55834;50.870;4.606;2023-04-23T01:51:23;100014.88;;;8.76;61.71
68822;BME280;55834;50.870;4.606;2023-04-23T01:53:50;100010.66;;;8.71;61.56
68822;BME280;55834;50.870;4.606;2023-04-23T01:56:15;100019.47;;;8.98;61.73
68822;BME280;55834;50.870;4.606;2023-04-23T01:58:44;100015.47;;;9.11;60.58
68822;BME280;55834;50.870;4.606;2023-04-23T02:01:09;100014.84;;;9.04;61.17
68822;BME280;55834;50.870;4.606;2023-04-23T02:03:35;100011.50;;;8.99;60.99
68822;BME280;55834;50.870;4.606;2023-04-23T02:06:00;100012.00;;;9.11;60.98
68822;BME280;55834;50.870;4.606;2023-04-23T02:08:26;100005.91;;;8.55;61.57
68822;BME280;55834;50.870;4.606;2023-04-23T02:10:52;100007.72;;;8.80;61.92
68822;BME280;55834;50.870;4.606;2023-04-23T02:13:17;100011.97;;;8.00;64.18
68822;BME280;55834;50.870;4.606;2023-04-23T02:15:43;100007.16;;;8.72;63.06
68822;BME280;55834;50.870;4.606;2023-04-23T02:18:08;100006.88;;;9.06;62.53
68822;BME280;55834;50.870;4.606;2023-04-23T02:20:35;100008.44;;;8.85;61.72
68822;BME280;55834;50.870;4.606;2023-04-23T02:23:05;100005.56;;;8.93;61.77
68822;BME280;55834;50.870;4.606;2023-04-23T02:25:30;100004.41;;;8.75;61.25
68822;BME280;55834;50.870;4.606;2023-04-23T02:27:56;100000.63;;;9.09;61.91
68822;BME280;55834;50.870;4.606;2023-04-23T02:30:21;99994.66;;;9.30;61.04
68822;BME280;55834;50.870;4.606;2023-04-23T02:32:47;99994.06;;;9.22;60.34
68822;BME280;55834;50.870;4.606;2023-04-23T02:35:12;99999.66;;;9.38;59.84
68822;BME280;55834;50.870;4.606;2023-04-23T02:37:38;99999.28;;;9.48;58.92
68822;BME280;55834;50.870;4.606;2023-04-23T02:40:04;99988.72;;;9.50;58.97
68822;BME280;55834;50.870;4.606;2023-04-23T02:42:30;99992.09;;;9.54;58.60
68822;BME280;55834;50.870;4.606;2023-04-23T02:44:56;100001.13;;;9.20;58.38
68822;BME280;55834;50.870;4.606;2023-04-23T02:47:21;100003.56;;;9.26;58.97
68822;BME280;55834;50.870;4.606;2023-04-23T02:49:46;99995.44;;;9.34;59.31
68822;BME280;55834;50.870;4.606;2023-04-23T02:52:12;99998.69;;;9.40;58.80
68822;BME280;55834;50.870;4.606;2023-04-23T02:54:37;100001.22;;;9.43;57.78
68822;BME280;55834;50.870;4.606;2023-04-23T02:57:04;99989.00;;;9.41;57.24
68822;BME280;55834;50.870;4.606;2023-04-23T02:59:29;99994.41;;;9.38;57.12
68822;BME280;55834;50.870;4.606;2023-04-23T03:01:55;99991.00;;;9.34;56.64
68822;BME280;55834;50.870;4.606;2023-04-23T03:04:20;99995.75;;;9.23;55.39
68822;BME280;55834;50.870;4.606;2023-04-23T03:06:46;99987.47;;;9.09;57.04
68822;BME280;55834;50.870;4.606;2023-04-23T03:09:12;99992.81;;;9.07;57.22
68822;BME280;55834;50.870;4.606;2023-04-23T03:11:38;99993.56;;;9.11;57.47
68822;BME280;55834;50.870;4.606;2023-04-23T03:14:03;99987.47;;;9.09;57.50
68822;BME280;55834;50.870;4.606;2023-04-23T03:16:29;99998.78;;;8.86;56.54
68822;BME280;55834;50.870;4.606;2023-04-23T03:18:56;99996.25;;;8.82;57.86
68822;BME280;55834;50.870;4.606;2023-04-23T03:21:22;99988.47;;;8.79;58.10
68822;BME280;55834;50.870;4.606;2023-04-23T03:23:47;99989.41;;;8.77;57.61
68822;BME280;55834;50.870;4.606;2023-04-23T03:26:12;99986.38;;;8.63;57.42
68822;BME280;55834;50.870;4.606;2023-04-23T03:28:38;99987.78;;;8.74;58.91
68822;BME280;55834;50.870;4.606;2023-04-23T03:31:03;99986.47;;;8.59;58.95
68822;BME280;55834;50.870;4.606;2023-04-23T03:33:29;99996.13;;;8.31;58.30
68822;BME280;55834;50.870;4.606;2023-04-23T03:35:54;99998.22;;;8.49;59.64
68822;BME280;55834;50.870;4.606;2023-04-23T03:38:19;99998.13;;;8.52;59.56
68822;BME280;55834;50.870;4.606;2023-04-23T03:40:45;99996.56;;;8.45;58.16
68822;BME280;55834;50.870;4.606;2023-04-23T03:43:10;99997.56;;;8.43;59.45
68822;BME280;55834;50.870;4.606;2023-04-23T03:45:36;99994.72;;;8.49;59.64
68822;BME280;55834;50.870;4.606;2023-04-23T03:48:01;99980.03;;;8.42;59.57
68822;BME280;55834;50.870;4.606;2023-04-23T03:50:26;99994.22;;;8.36;60.47
68822;BME280;55834;50.870;4.606;2023-04-23T03:52:52;99991.84;;;8.56;60.44
68822;BME280;55834;50.870;4.606;2023-04-23T03:55:17;99988.75;;;8.44;60.21
68822;BME280;55834;50.870;4.606;2023-04-23T03:57:44;99981.38;;;8.55;60.81
68822;BME280;55834;50.870;4.606;2023-04-23T04:00:10;99985.34;;;8.40;59.74
68822;BME280;55834;50.870;4.606;2023-04-23T04:02:36;99979.03;;;8.46;59.98
68822;BME280;55834;50.870;4.606;2023-04-23T04:05:03;99991.25;;;8.19;61.02
68822;BME280;55834;50.870;4.606;2023-04-23T04:07:29;99976.53;;;8.41;60.84
68822;BME280;55834;50.870;4.606;2023-04-23T04:09:54;99978.03;;;8.50;59.87
68822;BME280;55834;50.870;4.606;2023-04-23T04:12:20;99982.00;;;8.63;59.56
68822;BME280;55834;50.870;4.606;2023-04-23T04:14:45;99994.59;;;8.25;57.69
68822;BME280;55834;50.870;4.606;2023-04-23T04:17:10;99987.97;;;8.40;59.05
68822;BME280;55834;50.870;4.606;2023-04-23T04:19:37;99987.19;;;8.36;59.23
68822;BME280;55834;50.870;4.606;2023-04-23T04:22:02;99983.72;;;8.36;58.74
68822;BME280;55834;50.870;4.606;2023-04-23T04:24:28;99986.00;;;8.47;58.31
68822;BME280;55834;50.870;4.606;2023-04-23T04:26:57;99995.53;;;8.23;58.26
68822;BME280;55834;50.870;4.606;2023-04-23T04:29:24;100003.38;;;8.24;58.63
68822;BME280;55834;50.870;4.606;2023-04-23T04:31:50;100003.63;;;8.17;59.24
68822;BME280;55834;50.870;4.606;2023-04-23T04:34:16;100011.03;;;8.01;59.30
68822;BME280;55834;50.870;4.606;2023-04-23T04:36:42;100006.69;;;8.00;60.17
68822;BME280;55834;50.870;4.606;2023-04-23T04:39:08;100007.38;;;8.08;60.66
68822;BME280;55834;50.870;4.606;2023-04-23T04:41:35;100011.75;;;8.07;59.64
68822;BME280;55834;50.870;4.606;2023-04-23T04:44:01;100003.16;;;8.30;60.16
68822;BME280;55834;50.870;4.606;2023-04-23T04:46:26;99995.72;;;8.45;59.23
68822;BME280;55834;50.870;4.606;2023-04-23T04:48:53;99987.72;;;8.48;58.42
68822;BME280;55834;50.870;4.606;2023-04-23T04:51:20;99993.88;;;8.48;58.49
68822;BME280;55834;50.870;4.606;2023-04-23T04:53:45;99992.09;;;8.49;57.98
68822;BME280;55834;50.870;4.606;2023-04-23T04:56:10;99992.13;;;8.47;57.61
68822;BME280;55834;50.870;4.606;2023-04-23T04:58:36;99998.00;;;8.27;58.39
68822;BME280;55834;50.870;4.606;2023-04-23T05:01:01;99999.38;;;8.41;58.33
68822;BME280;55834;50.870;4.606;2023-04-23T05:03:27;100006.66;;;8.31;59.00
68822;BME280;55834;50.870;4.606;2023-04-23T05:05:53;100009.25;;;8.32;58.60
68822;BME280;55834;50.870;4.606;2023-04-23T05:08:23;100006.13;;;8.48;58.42
68822;BME280;55834;50.870;4.606;2023-04-23T05:10:49;99993.78;;;8.51;57.81
68822;BME280;55834;50.870;4.606;2023-04-23T05:13:15;99997.06;;;8.58;58.48
68822;BME280;55834;50.870;4.606;2023-04-23T05:15:48;99998.53;;;8.67;58.46
68822;BME280;55834;50.870;4.606;2023-04-23T05:18:14;99997.47;;;8.72;57.97
68822;BME280;55834;50.870;4.606;2023-04-23T05:20:47;99988.31;;;8.84;58.47
68822;BME280;55834;50.870;4.606;2023-04-23T05:23:21;99998.66;;;8.89;57.82
68822;BME280;55834;50.870;4.606;2023-04-23T05:25:50;99986.72;;;9.05;58.28
68822;BME280;55834;50.870;4.606;2023-04-23T05:28:17;99986.00;;;9.26;57.79
68822;BME280;55834;50.870;4.606;2023-04-23T05:30:43;99980.78;;;9.25;57.80
68822;BME280;55834;50.870;4.606;2023-04-23T05:33:08;99990.38;;;9.53;57.94
68822;BME280;55834;50.870;4.606;2023-04-23T05:35:34;99987.66;;;9.79;58.03
68822;BME280;55834;50.870;4.606;2023-04-23T05:38:00;99986.84;;;10.01;57.27
68822;BME280;55834;50.870;4.606;2023-04-23T05:40:26;99984.28;;;10.21;56.68
68822;BME280;55834;50.870;4.606;2023-04-23T05:42:52;99985.22;;;10.42;56.47
68822;BME280;55834;50.870;4.606;2023-04-23T05:45:17;99984.56;;;10.59;55.75
68822;BME280;55834;50.870;4.606;2023-04-23T05:47:43;99983.34;;;10.68;55.20
68822;BME280;55834;50.870;4.606;2023-04-23T05:50:12;99977.59;;;10.80;55.02
68822;BME280;55834;50.870;4.606;2023-04-23T05:52:37;99976.13;;;10.51;56.16
68822;BME280;55834;50.870;4.606;2023-04-23T05:55:04;99978.63;;;10.76;56.61
68822;BME280;55834;50.870;4.606;2023-04-23T05:57:30;99962.53;;;11.02;55.81
68822;BME280;55834;50.870;4.606;2023-04-23T05:59:56;99968.84;;;11.20;55.15
68822;BME280;55834;50.870;4.606;2023-04-23T06:02:22;99981.16;;;11.40;55.04
68822;BME280;55834;50.870;4.606;2023-04-23T06:04:47;99975.28;;;11.34;54.31
68822;BME280;55834;50.870;4.606;2023-04-23T06:07:13;99976.75;;;11.20;54.46
68822;BME280;55834;50.870;4.606;2023-04-23T06:09:39;99977.00;;;11.14;55.55
68822;BME280;55834;50.870;4.606;2023-04-23T06:12:05;99981.66;;;11.09;55.05
68822;BME280;55834;50.870;4.606;2023-04-23T06:14:30;99970.94;;;10.92;56.83
68822;BME280;55834;50.870;4.606;2023-04-23T06:16:58;99976.09;;;11.15;56.38
68822;BME280;55834;50.870;4.606;2023-04-23T06:19:24;99977.13;;;11.11;56.74
68822;BME280;55834;50.870;4.606;2023-04-23T06:21:51;99982.41;;;10.48;57.14
68822;BME280;55834;50.870;4.606;2023-04-23T06:24:16;99967.03;;;11.21;57.19
68822;BME280;55834;50.870;4.606;2023-04-23T06:26:42;99971.31;;;11.44;55.70
68822;BME280;55834;50.870;4.606;2023-04-23T06:29:08;99967.88;;;10.58;56.99
68822;BME280;55834;50.870;4.606;2023-04-23T06:31:34;99963.16;;;11.09;56.89
68822;BME280;55834;50.870;4.606;2023-04-23T06:34:00;99967.44;;;11.32;56.25
68822;BME280;55834;50.870;4.606;2023-04-23T06:36:25;99965.25;;;11.42;56.09
68822;BME280;55834;50.870;4.606;2023-04-23T06:38:51;99951.34;;;11.18;55.42
68822;BME280;55834;50.870;4.606;2023-04-23T06:41:16;99959.34;;;11.56;56.79
68822;BME280;55834;50.870;4.606;2023-04-23T06:43:44;99956.41;;;11.82;56.19
68822;BME280;55834;50.870;4.606;2023-04-23T06:46:12;99954.41;;;11.48;56.53
68822;BME280;55834;50.870;4.606;2023-04-23T06:48:38;99950.75;;;10.69;57.83
68822;BME280;55834;50.870;4.606;2023-04-23T06:51:03;99947.31;;;11.09;57.69
68822;BME280;55834;50.870;4.606;2023-04-23T06:53:30;99941.19;;;11.48;57.28
68822;BME280;55834;50.870;4.606;2023-04-23T06:55:56;99954.97;;;11.94;56.06
68822;BME280;55834;50.870;4.606;2023-04-23T06:58:21;99941.41;;;12.38;55.47
68822;BME280;55834;50.870;4.606;2023-04-23T07:00:52;99949.31;;;11.64;56.54
68822;BME280;55834;50.870;4.606;2023-04-23T07:03:17;99931.88;;;12.16;56.73
68822;BME280;55834;50.870;4.606;2023-04-23T07:05:43;99931.91;;;12.34;55.40
68822;BME280;55834;50.870;4.606;2023-04-23T07:08:08;99927.09;;;12.78;53.83
68822;BME280;55834;50.870;4.606;2023-04-23T07:10:43;99946.47;;;12.06;54.98
68822;BME280;55834;50.870;4.606;2023-04-23T07:13:12;99938.22;;;11.74;55.33
68822;BME280;55834;50.870;4.606;2023-04-23T07:15:40;99940.81;;;11.95;56.31
68822;BME280;55834;50.870;4.606;2023-04-23T07:18:07;99930.13;;;12.34;55.50
68822;BME280;55834;50.870;4.606;2023-04-23T07:20:32;99929.53;;;11.72;56.76
68822;BME280;55834;50.870;4.606;2023-04-23T07:22:58;99918.81;;;12.67;55.79
68822;BME280;55834;50.870;4.606;2023-04-23T07:25:25;99922.16;;;12.17;53.89
68822;BME280;55834;50.870;4.606;2023-04-23T07:27:52;99907.38;;;12.84;53.61
68822;BME280;55834;50.870;4.606;2023-04-23T07:30:19;99906.91;;;12.93;54.15
68822;BME280;55834;50.870;4.606;2023-04-23T07:32:45;99916.00;;;11.97;55.14
68822;BME280;55834;50.870;4.606;2023-04-23T07:35:13;99902.75;;;12.53;55.36
68822;BME280;55834;50.870;4.606;2023-04-23T07:37:38;99908.47;;;13.15;54.02
68822;BME280;55834;50.870;4.606;2023-04-23T07:40:04;99915.09;;;12.35;54.88
68822;BME280;55834;50.870;4.606;2023-04-23T07:42:30;99908.59;;;12.42;55.43
68822;BME280;55834;50.870;4.606;2023-04-23T07:44:56;99911.13;;;12.26;54.10
68822;BME280;55834;50.870;4.606;2023-04-23T07:47:23;99920.38;;;11.99;56.32
68822;BME280;55834;50.870;4.606;2023-04-23T07:49:49;99903.94;;;12.99;53.96
68822;BME280;55834;50.870;4.606;2023-04-23T07:52:15;99913.00;;;12.60;54.97
68822;BME280;55834;50.870;4.606;2023-04-23T07:54:41;99908.97;;;12.15;55.31
68822;BME280;55834;50.870;4.606;2023-04-23T07:57:07;99911.94;;;11.71;56.69
68822;BME280;55834;50.870;4.606;2023-04-23T07:59:32;99914.16;;;11.81;56.39
68822;BME280;55834;50.870;4.606;2023-04-23T08:01:58;99898.19;;;12.01;56.72
68822;BME280;55834;50.870;4.606;2023-04-23T08:04:23;99895.97;;;12.47;55.20
68822;BME280;55834;50.870;4.606;2023-04-23T08:06:49;99900.91;;;12.36;53.78
68822;BME280;55834;50.870;4.606;2023-04-23T08:09:14;99900.44;;;12.10;54.02
68822;BME280;55834;50.870;4.606;2023-04-23T08:11:40;99891.81;;;12.41;54.85
68822;BME280;55834;50.870;4.606;2023-04-23T08:14:05;99895.59;;;12.55;54.38
68822;BME280;55834;50.870;4.606;2023-04-23T08:16:32;99894.59;;;12.21;55.17
68822;BME280;55834;50.870;4.606;2023-04-23T08:18:58;99907.16;;;11.80;55.58
68822;BME280;55834;50.870;4.606;2023-04-23T08:21:23;99891.66;;;11.91;56.13
68822;BME280;55834;50.870;4.606;2023-04-23T08:23:51;99884.63;;;13.15;55.07
68822;BME280;55834;50.870;4.606;2023-04-23T08:26:16;99894.16;;;13.35;52.63
68822;BME280;55834;50.870;4.606;2023-04-23T08:28:42;99894.25;;;14.14;52.70
68822;BME280;55834;50.870;4.606;2023-04-23T08:31:07;99894.59;;;13.76;50.98
68822;BME280;55834;50.870;4.606;2023-04-23T08:33:33;99894.78;;;13.73;51.70
68822;BME280;55834;50.870;4.606;2023-04-23T08:35:58;99889.44;;;13.06;53.32
68822;BME280;55834;50.870;4.606;2023-04-23T08:38:24;99893.22;;;13.36;53.30
68822;BME280;55834;50.870;4.606;2023-04-23T08:40:54;99888.00;;;13.83;51.81
68822;BME280;55834;50.870;4.606;2023-04-23T08:43:27;99882.31;;;14.21;51.59
68822;BME280;55834;50.870;4.606;2023-04-23T08:45:56;99881.66;;;14.17;50.55
68822;BME280;55834;50.870;4.606;2023-04-23T08:48:25;99885.72;;;13.93;51.03
68822;BME280;55834;50.870;4.606;2023-04-23T08:50:52;99893.66;;;13.44;51.64
68822;BME280;55834;50.870;4.606;2023-04-23T08:53:18;99890.38;;;13.56;51.99
68822;BME280;55834;50.870;4.606;2023-04-23T08:55:44;99882.50;;;13.37;50.92
68822;BME280;55834;50.870;4.606;2023-04-23T08:58:10;99877.41;;;12.30;52.79
68822;BME280;55834;50.870;4.606;2023-04-23T09:00:35;99882.56;;;13.20;52.34
68822;BME280;55834;50.870;4.606;2023-04-23T09:03:02;99878.78;;;13.41;51.51
68822;BME280;55834;50.870;4.606;2023-04-23T09:05:29;99873.75;;;12.69;52.45
68822;BME280;55834;50.870;4.606;2023-04-23T09:07:56;99873.06;;;12.46;54.10
68822;BME280;55834;50.870;4.606;2023-04-23T09:10:22;99872.41;;;12.77;52.97
68822;BME280;55834;50.870;4.606;2023-04-23T09:12:47;99873.22;;;12.26;53.78
68822;BME280;55834;50.870;4.606;2023-04-23T09:15:13;99864.22;;;13.32;53.29
68822;BME280;55834;50.870;4.606;2023-04-23T09:17:43;99863.53;;;13.78;50.51
68822;BME280;55834;50.870;4.606;2023-04-23T09:20:11;99867.00;;;12.96;52.79
68822;BME280;55834;50.870;4.606;2023-04-23T09:22:50;99865.88;;;13.51;52.40
68822;BME280;55834;50.870;4.606;2023-04-23T09:25:21;99865.56;;;13.57;53.47
68822;BME280;55834;50.870;4.606;2023-04-23T09:27:50;99859.88;;;14.27;49.75
68822;BME280;55834;50.870;4.606;2023-04-23T09:30:16;99850.69;;;14.02;49.92
68822;BME280;55834;50.870;4.606;2023-04-23T09:32:44;99846.66;;;14.11;50.04
68822;BME280;55834;50.870;4.606;2023-04-23T09:35:14;99846.28;;;14.33;50.13
68822;BME280;55834;50.870;4.606;2023-04-23T09:37:44;99842.81;;;14.47;49.81
68822;BME280;55834;50.870;4.606;2023-04-23T09:40:14;99846.78;;;14.23;49.03
68822;BME280;55834;50.870;4.606;2023-04-23T09:42:46;99841.72;;;14.35;50.32
68822;BME280;55834;50.870;4.606;2023-04-23T09:45:12;99844.94;;;14.56;48.73
68822;BME280;55834;50.870;4.606;2023-04-23T09:47:39;99843.63;;;14.33;47.82
68822;BME280;55834;50.870;4.606;2023-04-23T09:50:05;99850.50;;;13.08;50.20
68822;BME280;55834;50.870;4.606;2023-04-23T09:52:37;99836.22;;;14.08;48.54
68822;BME280;55834;50.870;4.606;2023-04-23T09:55:03;99835.78;;;14.15;49.82
68822;BME280;55834;50.870;4.606;2023-04-23T09:57:40;99829.03;;;13.62;49.23
68822;BME280;55834;50.870;4.606;2023-04-23T10:00:17;99831.91;;;13.26;51.04
68822;BME280;55834;50.870;4.606;2023-04-23T10:02:47;99824.97;;;13.39;49.73
68822;BME280;55834;50.870;4.606;2023-04-23T10:05:17;99819.16;;;13.48;50.75
68822;BME280;55834;50.870;4.606;2023-04-23T10:07:44;99822.81;;;13.30;50.07
68822;BME280;55834;50.870;4.606;2023-04-23T10:10:11;99816.38;;;13.67;50.21
68822;BME280;55834;50.870;4.606;2023-04-23T10:12:38;99804.81;;;13.52;49.09
68822;BME280;55834;50.870;4.606;2023-04-23T10:15:04;99805.59;;;14.62;48.17
68822;BME280;55834;50.870;4.606;2023-04-23T10:17:31;99804.44;;;14.06;46.94
68822;BME280;55834;50.870;4.606;2023-04-23T10:19:59;99807.38;;;13.54;47.64
68822;BME280;55834;50.870;4.606;2023-04-23T10:22:28;99809.13;;;13.22;48.52
68822;BME280;55834;50.870;4.606;2023-04-23T10:24:55;99800.53;;;13.50;48.37
68822;BME280;55834;50.870;4.606;2023-04-23T10:27:26;99799.19;;;14.20;46.10
68822;BME280;55834;50.870;4.606;2023-04-23T10:29:52;99803.94;;;14.15;47.13
68822;BME280;55834;50.870;4.606;2023-04-23T10:32:19;99798.25;;;14.21;46.44
68822;BME280;55834;50.870;4.606;2023-04-23T10:34:45;99796.22;;;14.85;46.20
68822;BME280;55834;50.870;4.606;2023-04-23T10:37:11;99795.34;;;14.56;46.57
68822;BME280;55834;50.870;4.606;2023-04-23T10:39:37;99797.50;;;14.04;46.91
68822;BME280;55834;50.870;4.606;2023-04-23T10:42:03;99792.50;;;14.43;46.02
68822;BME280;55834;50.870;4.606;2023-04-23T10:44:36;99778.84;;;14.05;45.66
68822;BME280;55834;50.870;4.606;2023-04-23T10:47:03;99785.41;;;14.14;45.50
68822;BME280;55834;50.870;4.606;2023-04-23T10:49:30;99780.22;;;14.27;45.23
68822;BME280;55834;50.870;4.606;2023-04-23T10:52:13;99767.44;;;13.73;45.79
68822;BME280;55834;50.870;4.606;2023-04-23T10:54:40;99766.50;;;14.79;45.93
68822;BME280;55834;50.870;4.606;2023-04-23T10:57:06;99753.91;;;15.11;44.48
68822;BME280;55834;50.870;4.606;2023-04-23T10:59:33;99759.38;;;14.51;44.40
68822;BME280;55834;50.870;4.606;2023-04-23T11:02:10;99746.31;;;14.62;45.03
68822;BME280;55834;50.870;4.606;2023-04-23T11:04:41;99733.69;;;14.65;45.27
68822;BME280;55834;50.870;4.606;2023-04-23T11:07:10;99737.56;;;14.74;43.22
68822;BME280;55834;50.870;4.606;2023-04-23T11:12:10;99738.81;;;14.83;43.53
68822;BME280;55834;50.870;4.606;2023-04-23T11:14:36;99727.47;;;13.60;43.76
68822;BME280;55834;50.870;4.606;2023-04-23T11:17:05;99720.97;;;14.56;45.00
68822;BME280;55834;50.870;4.606;2023-04-23T11:19:35;99728.75;;;14.74;43.34
68822;BME280;55834;50.870;4.606;2023-04-23T11:22:05;99717.28;;;14.29;43.26
68822;BME280;55834;50.870;4.606;2023-04-23T11:24:33;99726.09;;;14.29;43.76
68822;BME280;55834;50.870;4.606;2023-04-23T11:27:04;99704.09;;;13.83;43.34
68822;BME280;55834;50.870;4.606;2023-04-23T11:29:30;99709.19;;;13.56;43.09
68822;BME280;55834;50.870;4.606;2023-04-23T11:31:56;99708.94;;;13.90;43.75
68822;BME280;55834;50.870;4.606;2023-04-23T11:34:22;99707.38;;;14.61;42.62
68822;BME280;55834;50.870;4.606;2023-04-23T11:36:51;99695.97;;;14.30;42.46
68822;BME280;55834;50.870;4.606;2023-04-23T11:39:17;99693.28;;;13.56;44.96
68822;BME280;55834;50.870;4.606;2023-04-23T11:41:44;99676.81;;;13.81;43.56
68822;BME280;55834;50.870;4.606;2023-04-23T11:44:11;99681.34;;;14.37;43.19
68822;BME280;55834;50.870;4.606;2023-04-23T11:46:37;99676.72;;;14.41;42.69
68822;BME280;55834;50.870;4.606;2023-04-23T11:49:02;99660.97;;;14.95;43.30
68822;BME280;55834;50.870;4.606;2023-04-23T11:51:28;99662.34;;;14.74;41.63
68822;BME280;55834;50.870;4.606;2023-04-23T11:53:54;99665.69;;;14.04;43.72
68822;BME280;55834;50.870;4.606;2023-04-23T11:56:29;99648.34;;;14.84;41.61
68822;BME280;55834;50.870;4.606;2023-04-23T11:59:01;99646.06;;;15.61;41.92
68822;BME280;55834;50.870;4.606;2023-04-23T12:01:43;99649.22;;;15.26;41.13
68822;BME280;55834;50.870;4.606;2023-04-23T12:04:18;99651.78;;;14.86;42.61
68822;BME280;55834;50.870;4.606;2023-04-23T12:06:45;99651.31;;;14.37;42.09
68822;BME280;55834;50.870;4.606;2023-04-23T12:09:12;99652.25;;;14.36;42.88
68822;BME280;55834;50.870;4.606;2023-04-23T12:11:39;99650.69;;;14.48;43.03
68822;BME280;55834;50.870;4.606;2023-04-23T12:14:05;99652.28;;;15.20;41.40
68822;BME280;55834;50.870;4.606;2023-04-23T12:19:12;99692.59;;;13.04;45.56
68822;BME280;55834;50.870;4.606;2023-04-23T12:21:52;99669.59;;;12.89;49.91
68822;BME280;55834;50.870;4.606;2023-04-23T12:24:20;99680.44;;;13.16;52.04
68822;BME280;55834;50.870;4.606;2023-04-23T12:26:48;99680.25;;;13.51;50.80
68822;BME280;55834;50.870;4.606;2023-04-23T12:29:16;99681.91;;;13.06;52.58
68822;BME280;55834;50.870;4.606;2023-04-23T12:31:42;99676.00;;;13.17;53.25
68822;BME280;55834;50.870;4.606;2023-04-23T12:34:09;99677.63;;;12.87;54.57
68822;BME280;55834;50.870;4.606;2023-04-23T12:36:36;99680.47;;;12.34;55.91
68822;BME280;55834;50.870;4.606;2023-04-23T12:39:28;99686.13;;;11.93;58.00
68822;BME280;55834;50.870;4.606;2023-04-23T12:42:00;99680.50;;;12.16;57.46
68822;BME280;55834;50.870;4.606;2023-04-23T12:44:27;99669.00;;;12.51;56.69
68822;BME280;55834;50.870;4.606;2023-04-23T12:46:57;99677.19;;;12.79;56.76
68822;BME280;55834;50.870;4.606;2023-04-23T12:49:24;99672.25;;;13.05;55.00
68822;BME280;55834;50.870;4.606;2023-04-23T12:51:51;99667.16;;;12.35;57.53
68822;BME280;55834;50.870;4.606;2023-04-23T12:54:17;99669.25;;;12.79;57.46
68822;BME280;55834;50.870;4.606;2023-04-23T12:56:43;99672.84;;;12.94;55.55
68822;BME280;55834;50.870;4.606;2023-04-23T12:59:09;99670.06;;;12.31;59.04
68822;BME280;55834;50.870;4.606;2023-04-23T13:01:35;99648.03;;;12.63;58.09
68822;BME280;55834;50.870;4.606;2023-04-23T13:04:00;99639.25;;;13.10;56.67
68822;BME280;55834;50.870;4.606;2023-04-23T13:06:26;99634.72;;;13.13;55.43